Time;durP1;ratioP1;P1;durP2;ratioP2;P2;SDS_P1;SDS_P2;PMS_P1;PMS_P2;Temp;Humidity;BMP_temperature;BMP_pressure;BME280_temperature;BME280_humidity;BME280_pressure;Samples;Min_cycle;Max_cycle;Signal;HPM_P1;HPM_P2
2021/09/17 00:01:21;;;;;;;28.48;10.18;;;615.30;2432.00;;;;;;5037268;28;20017;-70
2021/09/17 00:03:47;;;;;;;26.25;9.30;;;615.30;2432.00;;;;;;5051725;28;20104;-70
2021/09/17 00:06:13;;;;;;;36.25;10.65;;;615.20;2432.00;;;;;;5039694;28;20027;-70
2021/09/17 00:08:38;;;;;;;20.52;8.60;;;615.10;2432.00;;;;;;5059395;28;20017;-70
2021/09/17 00:11:06;;;;;;;19.38;9.43;;;615.20;2432.00;;;;;;5025840;28;20035;-70
2021/09/17 00:13:35;;;;;;;28.13;9.45;;;615.20;2432.00;;;;;;5038934;28;20025;-71
2021/09/17 00:16:01;;;;;;;18.50;8.68;;;615.10;2432.00;;;;;;5036914;28;20033;-70
2021/09/17 00:18:27;;;;;;;28.75;8.52;;;615.20;2432.00;;;;;;5032882;28;20167;-70
2021/09/17 00:20:52;;;;;;;21.42;8.43;;;615.20;2432.00;;;;;;5049081;28;20495;-70
2021/09/17 00:23:18;;;;;;;19.50;9.07;;;615.20;2432.00;;;;;;5029042;28;20033;-70
2021/09/17 00:25:44;;;;;;;24.23;8.68;;;615.20;2432.00;;;;;;5031387;28;20100;-70
2021/09/17 00:28:10;;;;;;;24.70;9.07;;;615.20;2432.00;;;;;;5039972;28;20412;-70
2021/09/17 00:30:35;;;;;;;21.95;9.80;;;615.20;2432.00;;;;;;5049465;28;20476;-70
2021/09/17 00:33:03;;;;;;;30.92;9.43;;;615.20;2432.00;;;;;;5051166;28;20025;-70
2021/09/17 00:35:29;;;;;;;22.15;9.32;;;615.20;2432.00;;;;;;5050805;28;20098;-70
2021/09/17 00:37:55;;;;;;;23.42;9.00;;;615.20;2432.00;;;;;;5050794;28;20484;-71
2021/09/17 00:40:21;;;;;;;21.17;9.93;;;615.20;2432.00;;;;;;5050679;28;20112;-71
2021/09/17 00:42:48;;;;;;;32.55;10.00;;;615.20;2432.00;;;;;;5047588;28;20456;-71
2021/09/17 00:45:14;;;;;;;22.65;10.60;;;615.20;2432.00;;;;;;5049617;28;20017;-70
2021/09/17 00:47:41;;;;;;;21.63;8.60;;;615.10;2432.00;;;;;;5051063;28;20464;-70
2021/09/17 00:50:09;;;;;;;20.33;8.43;;;615.20;2432.00;;;;;;5029582;28;20384;-71
2021/09/17 00:52:35;;;;;;;21.27;8.60;;;615.20;2432.00;;;;;;5028339;28;20042;-71
2021/09/17 00:55:01;;;;;;;21.02;9.25;;;640.40;2432.00;;;;;;5045603;28;20040;-71
2021/09/17 00:57:27;;;;;;;20.13;11.02;;;615.20;2432.00;;;;;;5036971;28;20033;-70
2021/09/17 00:59:53;;;;;;;26.75;11.82;;;615.20;2432.00;;;;;;5034238;28;20036;-70
2021/09/17 01:02:19;;;;;;;26.98;13.25;;;615.20;2432.00;;;;;;5036170;28;21010;-71
2021/09/17 01:04:44;;;;;;;29.33;10.88;;;615.20;2432.00;;;;;;5040706;28;20104;-70
2021/09/17 01:07:12;;;;;;;25.35;11.45;;;615.10;2432.00;;;;;;5031623;28;20018;-70
2021/09/17 01:09:39;;;;;;;39.28;13.00;;;615.10;2432.00;;;;;;5031192;28;20045;-70
2021/09/17 01:12:07;;;;;;;25.80;12.35;;;615.10;2432.00;;;;;;5041795;28;20021;-70
2021/09/17 01:14:35;;;;;;;25.65;13.48;;;615.10;2432.00;;;;;;5047329;28;20456;-70
2021/09/17 01:17:01;;;;;;;25.70;11.40;;;615.10;2432.00;;;;;;5033657;28;20044;-70
2021/09/17 01:19:27;;;;;;;22.13;11.15;;;615.10;2432.00;;;;;;5040939;28;20059;-70
2021/09/17 01:22:01;;;;;;;19.77;10.38;;;615.10;2432.00;;;;;;5042436;28;20028;-70
2021/09/17 01:24:28;;;;;;;27.65;10.13;;;615.00;2432.00;;;;;;5039216;28;20045;-70
2021/09/17 01:26:54;;;;;;;20.60;11.38;;;615.00;2432.00;;;;;;5041143;28;20036;-70
2021/09/17 01:29:21;;;;;;;26.67;13.65;;;615.00;2432.00;;;;;;5046856;28;20533;-70
2021/09/17 01:31:47;;;;;;;18.52;8.93;;;615.00;2432.00;;;;;;5050448;28;20028;-70
2021/09/17 01:34:17;;;;;;;17.58;10.52;;;615.00;2432.00;;;;;;5050481;28;20032;-70
2021/09/17 01:36:43;;;;;;;28.38;11.13;;;615.00;2432.00;;;;;;5049605;28;20391;-70
2021/09/17 01:39:08;;;;;;;23.25;11.48;;;615.00;2432.00;;;;;;5049825;28;20021;-70
2021/09/17 01:41:35;;;;;;;25.25;11.43;;;614.90;2432.00;;;;;;5048973;28;20025;-70
2021/09/17 01:44:01;;;;;;;24.38;10.32;;;614.90;2432.00;;;;;;5050262;28;20031;-70
2021/09/17 01:46:27;;;;;;;24.77;9.55;;;614.90;2432.00;;;;;;5049485;28;20021;-70
2021/09/17 01:48:52;;;;;;;26.25;12.32;;;614.90;2432.00;;;;;;5050261;28;20086;-70
2021/09/17 01:51:18;;;;;;;28.85;10.48;;;614.90;2432.00;;;;;;5048145;28;20033;-70
2021/09/17 01:53:44;;;;;;;31.27;10.40;;;614.80;2432.00;;;;;;5047479;28;20021;-70
2021/09/17 01:56:10;;;;;;;24.42;10.68;;;614.80;2432.00;;;;;;5049187;28;20388;-70
2021/09/17 01:58:36;;;;;;;26.05;10.52;;;614.80;2432.00;;;;;;5031878;28;20070;-70
2021/09/17 02:01:02;;;;;;;24.45;10.27;;;614.80;2432.00;;;;;;5049185;28;20029;-70
2021/09/17 02:03:28;;;;;;;26.80;11.60;;;614.70;2432.00;;;;;;5050052;28;20013;-70
2021/09/17 02:05:54;;;;;;;27.35;11.00;;;614.70;2432.00;;;;;;5031315;28;20025;-70
2021/09/17 02:08:19;;;;;;;21.75;10.73;;;614.70;2432.00;;;;;;5048790;28;20025;-70
2021/09/17 02:10:45;;;;;;;27.05;13.07;;;614.60;2432.00;;;;;;5049452;28;20460;-70
2021/09/17 02:13:12;;;;;;;27.92;10.43;;;614.60;2432.00;;;;;;5049419;28;20078;-70
2021/09/17 02:15:38;;;;;;;23.83;9.45;;;614.60;2432.00;;;;;;5049495;28;20017;-70
2021/09/17 02:18:04;;;;;;;25.73;10.25;;;614.60;2432.00;;;;;;5048949;28;20407;-70
2021/09/17 02:20:30;;;;;;;29.02;12.65;;;614.60;2432.00;;;;;;5049047;28;20086;-70
2021/09/17 02:22:55;;;;;;;24.90;10.15;;;614.50;2432.00;;;;;;5048886;28;20032;-70
2021/09/17 02:25:21;;;;;;;21.42;9.38;;;614.50;2432.00;;;;;;5022196;28;20073;-70
2021/09/17 02:27:47;;;;;;;21.88;9.32;;;614.50;2432.00;;;;;;5031343;28;20033;-70
2021/09/17 02:30:14;;;;;;;26.25;10.07;;;614.50;2432.00;;;;;;5045368;28;20063;-70
2021/09/17 02:32:40;;;;;;;28.23;10.30;;;614.50;2432.00;;;;;;5034853;28;20448;-70
2021/09/17 02:35:08;;;;;;;20.38;10.23;;;614.40;2432.00;;;;;;5031046;28;20055;-70
2021/09/17 02:37:34;;;;;;;37.80;12.52;;;614.40;2432.00;;;;;;5055859;28;20063;-70
2021/09/17 02:40:00;;;;;;;24.63;11.05;;;614.50;2432.00;;;;;;5055299;28;20383;-70
2021/09/17 02:42:26;;;;;;;23.38;9.57;;;614.40;2432.00;;;;;;5055987;28;20017;-70
2021/09/17 02:44:53;;;;;;;19.75;9.00;;;614.40;2432.00;;;;;;5055700;28;20052;-70
2021/09/17 02:47:19;;;;;;;29.40;10.05;;;614.40;2432.00;;;;;;5056272;28;20017;-70
2021/09/17 02:49:45;;;;;;;28.48;10.50;;;614.40;2432.00;;;;;;5055476;28;20831;-70
2021/09/17 02:52:11;;;;;;;25.20;11.45;;;614.40;2432.00;;;;;;5055384;28;20033;-70
2021/09/17 02:54:36;;;;;;;24.50;11.00;;;614.40;2432.00;;;;;;5055145;28;20104;-70
2021/09/17 02:57:02;;;;;;;23.25;11.60;;;614.40;2432.00;;;;;;5055830;28;20498;-70
2021/09/17 02:59:28;;;;;;;33.17;14.13;;;614.40;2432.00;;;;;;5035623;28;20033;-70
2021/09/17 03:01:54;;;;;;;26.77;13.60;;;614.40;2432.00;;;;;;5055687;28;20021;-70
2021/09/17 03:04:20;;;;;;;36.80;13.23;;;614.40;2432.00;;;;;;5056016;28;20107;-70
2021/09/17 03:06:45;;;;;;;32.78;16.75;;;614.40;2432.00;;;;;;5053930;28;20107;-70
2021/09/17 03:09:11;;;;;;;34.28;14.30;;;614.40;2432.00;;;;;;5056127;28;20483;-70
2021/09/17 03:11:37;;;;;;;28.83;13.88;;;614.40;2432.00;;;;;;5054956;28;20575;-70
2021/09/17 03:14:02;;;;;;;35.92;14.40;;;614.40;2432.00;;;;;;5057241;28;20021;-70
2021/09/17 03:16:28;;;;;;;31.00;14.43;;;614.40;2432.00;;;;;;5041029;28;20024;-70
2021/09/17 03:18:54;;;;;;;28.27;14.27;;;614.40;2432.00;;;;;;5026769;28;20377;-69
2021/09/17 03:21:20;;;;;;;30.48;15.55;;;614.40;2432.00;;;;;;5035369;28;20168;-69
2021/09/17 03:23:45;;;;;;;33.40;14.38;;;614.50;2432.00;;;;;;5042687;28;20033;-70
2021/09/17 03:26:11;;;;;;;39.58;14.38;;;614.50;2432.00;;;;;;5028184;28;20025;-70
2021/09/17 03:28:37;;;;;;;28.55;13.35;;;614.40;2432.00;;;;;;5054049;28;20032;-70
2021/09/17 03:31:03;;;;;;;39.03;14.20;;;614.40;2432.00;;;;;;5037254;28;20039;-70
2021/09/17 03:33:28;;;;;;;33.15;15.77;;;614.40;2432.00;;;;;;5054930;28;20056;-70
2021/09/17 03:35:54;;;;;;;27.55;13.93;;;614.40;2432.00;;;;;;5042623;28;20033;-70
2021/09/17 03:38:20;;;;;;;31.70;13.57;;;614.40;2432.00;;;;;;5049631;28;20129;-70
2021/09/17 03:40:47;;;;;;;27.58;14.10;;;614.40;2432.00;;;;;;5044425;28;20464;-70
2021/09/17 03:43:15;;;;;;;28.45;12.65;;;614.40;2432.00;;;;;;5047603;28;20480;-70
2021/09/17 03:45:41;;;;;;;28.05;10.63;;;614.40;2432.00;;;;;;5035236;28;20080;-70
2021/09/17 03:48:10;;;;;;;26.85;11.75;;;614.40;2432.00;;;;;;5024925;28;20640;-70
2021/09/17 03:50:36;;;;;;;34.00;12.75;;;614.40;2432.00;;;;;;5033851;28;20043;-70
2021/09/17 03:53:02;;;;;;;25.73;11.55;;;614.40;2432.00;;;;;;5045556;28;20112;-70
2021/09/17 03:55:28;;;;;;;28.25;10.98;;;614.40;2432.00;;;;;;5037361;28;20037;-70
2021/09/17 03:57:54;;;;;;;25.90;12.32;;;589.70;2432.00;;;;;;5032003;28;20030;-70
2021/09/17 04:00:20;;;;;;;29.17;12.20;;;589.70;2432.00;;;;;;5042190;28;20029;-70
2021/09/17 04:02:46;;;;;;;34.42;12.73;;;589.70;2432.00;;;;;;5034600;28;20091;-70
2021/09/17 04:05:12;;;;;;;31.73;12.60;;;589.70;2432.00;;;;;;5048430;28;20415;-71
2021/09/17 04:07:41;;;;;;;33.35;13.50;;;589.60;2432.00;;;;;;5015642;28;20029;-70
2021/09/17 04:10:10;;;;;;;28.38;11.77;;;589.60;2432.00;;;;;;5041191;28;20048;-70
2021/09/17 04:12:35;;;;;;;21.52;10.80;;;589.60;2432.00;;;;;;5021253;28;20041;-70
2021/09/17 04:15:01;;;;;;;28.95;12.88;;;589.50;2432.00;;;;;;5036411;28;20084;-70
2021/09/17 04:17:27;;;;;;;26.73;11.30;;;589.50;2432.00;;;;;;5034503;28;20036;-70
2021/09/17 04:19:53;;;;;;;29.27;12.30;;;589.40;2432.00;;;;;;5042510;28;20071;-70
2021/09/17 04:22:19;;;;;;;22.25;13.10;;;589.50;2432.00;;;;;;5018524;28;20064;-70
2021/09/17 04:24:45;;;;;;;28.67;13.02;;;589.40;2432.00;;;;;;5049416;28;20064;-70
2021/09/17 04:27:11;;;;;;;29.30;12.95;;;589.40;2432.00;;;;;;5038783;28;20059;-69
2021/09/17 04:29:36;;;;;;;26.17;11.00;;;589.40;2432.00;;;;;;5049920;28;20052;-70
2021/09/17 04:32:03;;;;;;;32.42;11.50;;;589.50;2432.00;;;;;;5032273;28;20033;-70
2021/09/17 04:34:28;;;;;;;28.25;13.68;;;589.50;2432.00;;;;;;5051327;28;20021;-70
2021/09/17 04:36:55;;;;;;;28.55;11.10;;;589.50;2432.00;;;;;;5051103;28;20503;-70
2021/09/17 04:39:21;;;;;;;37.58;14.98;;;589.50;2432.00;;;;;;5050337;28;20025;-70
2021/09/17 04:41:47;;;;;;;32.17;11.93;;;589.50;2432.00;;;;;;5040197;28;20053;-70
2021/09/17 04:44:12;;;;;;;31.63;12.25;;;589.50;2432.00;;;;;;5037138;28;20013;-69
2021/09/17 04:46:38;;;;;;;23.10;10.77;;;589.50;2432.00;;;;;;5039239;28;20037;-70
2021/09/17 04:49:04;;;;;;;28.10;11.48;;;614.40;2432.00;;;;;;5037618;28;20045;-70
2021/09/17 04:51:31;;;;;;;26.58;12.13;;;589.40;2432.00;;;;;;5032531;28;20065;-69
2021/09/17 04:53:57;;;;;;;37.67;13.32;;;589.30;2432.00;;;;;;5034849;28;20515;-69
2021/09/17 04:56:22;;;;;;;35.45;13.13;;;589.30;2432.00;;;;;;5032490;28;20061;-70
2021/09/17 04:58:49;;;;;;;35.47;15.75;;;589.30;2432.00;;;;;;5047181;28;20090;-70
2021/09/17 05:01:15;;;;;;;31.42;12.93;;;589.40;2432.00;;;;;;5046973;28;20068;-70
2021/09/17 05:03:41;;;;;;;23.45;12.95;;;589.40;2432.00;;;;;;5026006;28;20448;-70
2021/09/17 05:06:06;;;;;;;35.10;13.15;;;589.40;2432.00;;;;;;5040047;28;20071;-69
2021/09/17 05:08:32;;;;;;;28.52;12.57;;;589.40;2432.00;;;;;;5035718;28;20479;-69
2021/09/17 05:10:58;;;;;;;30.95;13.15;;;589.40;2432.00;;;;;;5035488;28;20515;-70
2021/09/17 05:13:24;;;;;;;27.45;14.38;;;589.50;2432.00;;;;;;5041180;28;20028;-70
2021/09/17 05:15:49;;;;;;;30.15;14.18;;;589.50;2432.00;;;;;;5049503;28;20036;-70
2021/09/17 05:18:15;;;;;;;33.80;13.68;;;589.50;2432.00;;;;;;5033534;28;20473;-70
2021/09/17 05:20:41;;;;;;;28.48;14.43;;;589.50;2432.00;;;;;;5032659;28;20037;-70
2021/09/17 05:23:07;;;;;;;29.35;14.13;;;589.50;2432.00;;;;;;5049985;28;20029;-71
2021/09/17 05:25:33;;;;;;;26.02;13.45;;;589.70;2432.00;;;;;;5035890;28;20070;-70
2021/09/17 05:27:59;;;;;;;33.17;12.43;;;589.70;2432.00;;;;;;5043730;28;20033;-70
2021/09/17 05:30:25;;;;;;;29.98;13.02;;;614.40;2432.00;;;;;;5048221;28;20017;-70
2021/09/17 05:32:51;;;;;;;33.95;12.02;;;614.50;2432.00;;;;;;5044122;28;20476;-70
2021/09/17 05:35:17;;;;;;;24.15;11.65;;;614.60;2432.00;;;;;;5047926;28;20082;-69
2021/09/17 05:37:43;;;;;;;31.10;13.10;;;614.60;2432.00;;;;;;5043449;28;20036;-70
2021/09/17 05:40:10;;;;;;;28.15;12.02;;;614.70;2432.00;;;;;;5039008;28;20064;-70
2021/09/17 05:42:36;;;;;;;28.48;11.07;;;614.70;2432.00;;;;;;5024688;28;20034;-70
2021/09/17 05:45:03;;;;;;;35.42;12.95;;;614.80;2432.00;;;;;;5049500;28;20068;-71
2021/09/17 05:47:31;;;;;;;29.25;14.30;;;614.90;2432.00;;;;;;5042536;28;20036;-71
2021/09/17 05:49:57;;;;;;;27.80;13.90;;;614.90;2432.00;;;;;;5043881;28;20460;-71
2021/09/17 05:52:22;;;;;;;33.38;13.57;;;615.00;2432.00;;;;;;5045847;28;20041;-70
2021/09/17 05:54:48;;;;;;;32.60;15.77;;;614.90;2432.00;;;;;;5051061;28;20085;-70
2021/09/17 05:57:14;;;;;;;31.05;14.05;;;614.90;2432.00;;;;;;5030013;28;20103;-70
2021/09/17 05:59:40;;;;;;;36.60;15.82;;;615.00;2432.00;;;;;;5051404;28;20158;-70
2021/09/17 06:02:08;;;;;;;37.90;16.15;;;615.10;2432.00;;;;;;5048537;28;20100;-70
2021/09/17 06:04:34;;;;;;;33.15;17.35;;;615.20;2432.00;;;;;;5049494;28;20041;-71
2021/09/17 06:07:00;;;;;;;43.10;19.75;;;640.00;2432.00;;;;;;5028169;28;20460;-70
2021/09/17 06:09:26;;;;;;;34.42;18.45;;;640.00;2432.00;;;;;;5044117;28;20044;-71
2021/09/17 06:11:52;;;;;;;35.38;18.10;;;640.20;2432.00;;;;;;5048501;28;20017;-71
2021/09/17 06:14:18;;;;;;;34.00;17.63;;;640.60;2432.00;;;;;;5050849;28;20025;-71
2021/09/17 06:16:43;;;;;;;34.33;17.65;;;640.80;2432.00;;;;;;5051040;28;20051;-71
2021/09/17 06:19:09;;;;;;;40.22;16.73;;;640.90;2432.00;;;;;;5048364;28;20066;-71
2021/09/17 06:21:35;;;;;;;43.05;15.55;;;665.60;2432.00;;;;;;5043113;28;20534;-71
2021/09/17 06:24:02;;;;;;;34.97;15.60;;;665.70;2432.00;;;;;;5036436;28;20041;-71
2021/09/17 06:26:31;;;;;;;31.75;16.23;;;665.80;2432.00;;;;;;5038894;28;20041;-71
2021/09/17 06:29:02;;;;;;;25.27;15.27;;;665.90;2432.00;;;;;;5038838;28;20025;-72
2021/09/17 06:31:28;;;;;;;41.17;17.00;;;665.90;2432.00;;;;;;5046739;28;20024;-71
2021/09/17 06:33:54;;;;;;;25.55;16.40;;;665.90;2432.00;;;;;;5042299;28;20082;-72
2021/09/17 06:36:20;;;;;;;33.72;15.30;;;666.00;2432.00;;;;;;5053329;28;20028;-71
2021/09/17 06:38:46;;;;;;;28.35;15.40;;;665.90;2432.00;;;;;;5046336;28;20021;-72
2021/09/17 06:41:12;;;;;;;26.60;16.17;;;666.10;2432.00;;;;;;5046895;28;20023;-72
2021/09/17 06:43:37;;;;;;;27.83;14.85;;;666.10;2432.00;;;;;;5049064;28;20013;-72
2021/09/17 06:46:03;;;;;;;32.35;15.93;;;666.00;2432.00;;;;;;5047933;28;20468;-72
2021/09/17 06:48:29;;;;;;;41.05;16.58;;;666.10;2432.00;;;;;;5050795;28;20025;-72
2021/09/17 06:50:55;;;;;;;30.05;17.05;;;666.00;2432.00;;;;;;5060253;28;20032;-71
2021/09/17 06:53:21;;;;;;;24.65;16.05;;;666.00;2432.00;;;;;;5037842;28;20360;-71
2021/09/17 06:55:46;;;;;;;25.15;14.40;;;666.10;2432.00;;;;;;5024794;28;20117;-71
2021/09/17 06:58:12;;;;;;;36.33;16.13;;;666.20;2432.00;;;;;;5040448;28;20106;-71
2021/09/17 07:00:38;;;;;;;32.67;16.35;;;666.30;2432.00;;;;;;5037611;28;20465;-70
2021/09/17 07:03:05;;;;;;;28.58;17.10;;;666.30;2432.00;;;;;;5037529;28;20517;-70
2021/09/17 07:05:32;;;;;;;31.85;17.17;;;666.30;2432.00;;;;;;5039439;28;20025;-71
2021/09/17 07:08:06;;;;;;;32.35;16.95;;;691.20;2432.00;;;;;;5042539;28;20025;-71
2021/09/17 07:10:34;;;;;;;38.88;15.60;;;691.20;2432.00;;;;;;5045530;28;20040;-71
2021/09/17 07:13:00;;;;;;;35.33;16.10;;;691.20;2432.00;;;;;;5042377;28;20037;-71
2021/09/17 07:15:26;;;;;;;32.25;16.75;;;691.20;2432.00;;;;;;5046264;28;20083;-70
2021/09/17 07:17:53;;;;;;;36.55;16.77;;;691.20;2432.00;;;;;;5037423;28;20029;-70
2021/09/17 07:20:19;;;;;;;41.30;14.35;;;691.20;2432.00;;;;;;5036972;28;20030;-71
2021/09/17 07:22:45;;;;;;;28.08;13.73;;;691.40;2432.00;;;;;;5046317;28;20044;-71
2021/09/17 07:25:11;;;;;;;32.47;14.07;;;691.40;2432.00;;;;;;5047773;28;20048;-71
2021/09/17 07:27:38;;;;;;;26.73;13.70;;;691.40;2432.00;;;;;;5054455;28;20036;-71
2021/09/17 07:30:05;;;;;;;37.08;16.17;;;691.50;2432.00;;;;;;5046009;28;20025;-70
2021/09/17 07:32:31;;;;;;;29.10;13.52;;;691.50;2432.00;;;;;;5046240;28;20487;-70
2021/09/17 07:34:57;;;;;;;33.97;13.13;;;691.80;2432.00;;;;;;5023576;28;20033;-70
2021/09/17 07:37:23;;;;;;;35.13;13.85;;;692.00;2432.00;;;;;;5040702;28;20022;-70
2021/09/17 07:39:49;;;;;;;37.05;13.63;;;716.80;2432.00;;;;;;5039016;28;20021;-70
2021/09/17 07:42:16;;;;;;;28.33;13.05;;;717.00;2432.00;;;;;;5044491;28;20024;-71
2021/09/17 07:44:41;;;;;;;47.83;16.52;;;717.00;2432.00;;;;;;5044720;28;20075;-72
2021/09/17 07:47:08;;;;;;;34.10;14.13;;;717.10;2432.00;;;;;;5040778;28;20017;-71
2021/09/17 07:49:34;;;;;;;28.15;15.30;;;717.30;2432.00;;;;;;5041013;28;20037;-71
2021/09/17 07:52:00;;;;;;;32.80;15.02;;;717.30;2432.00;;;;;;5046258;28;20040;-72
2021/09/17 07:54:27;;;;;;;31.75;15.38;;;717.40;2432.00;;;;;;5052659;28;20025;-72
2021/09/17 07:56:54;;;;;;;37.63;14.00;;;717.50;2432.00;;;;;;5045399;28;20056;-72
2021/09/17 07:59:20;;;;;;;30.80;14.60;;;717.60;2432.00;;;;;;5026004;28;20017;-72
2021/09/17 08:01:46;;;;;;;36.13;16.70;;;717.70;2432.00;;;;;;5043054;28;20045;-72
2021/09/17 08:04:12;;;;;;;42.60;19.35;;;717.70;2432.00;;;;;;5040232;28;20021;-72
2021/09/17 08:06:37;;;;;;;32.20;17.15;;;717.70;2432.00;;;;;;5044850;28;20025;-72
2021/09/17 08:09:04;;;;;;;47.88;22.80;;;717.70;2432.00;;;;;;5052491;28;20017;-72
2021/09/17 08:11:29;;;;;;;41.53;23.38;;;717.70;2432.00;;;;;;5033667;28;20044;-72
2021/09/17 08:13:55;;;;;;;42.63;25.17;;;717.50;2432.00;;;;;;5042167;28;20038;-71
2021/09/17 08:16:21;;;;;;;41.75;22.40;;;717.50;2432.00;;;;;;5047698;28;20032;-72
2021/09/17 08:18:47;;;;;;;43.38;24.02;;;717.40;2432.00;;;;;;5049043;28;20039;-72
2021/09/17 08:21:13;;;;;;;40.20;23.85;;;717.60;2432.00;;;;;;5041537;28;20025;-72
2021/09/17 08:23:39;;;;;;;36.92;23.33;;;717.70;2432.00;;;;;;5046038;28;20081;-72
2021/09/17 08:26:08;;;;;;;30.70;17.00;;;742.40;2432.00;;;;;;5046018;28;20096;-72
2021/09/17 08:28:34;;;;;;;32.92;15.32;;;742.70;2432.00;;;;;;5048482;28;20028;-71
2021/09/17 08:31:02;;;;;;;35.05;15.65;;;743.20;2432.00;;;;;;5038227;28;20029;-71
2021/09/17 08:33:28;;;;;;;26.67;13.50;;;768.40;2432.00;;;;;;5036754;28;20029;-71
2021/09/17 08:35:54;;;;;;;31.77;13.43;;;768.90;2432.00;;;;;;5044220;28;20037;-72
2021/09/17 08:38:20;;;;;;;22.10;11.38;;;768.70;2432.00;;;;;;5048691;28;20025;-72
2021/09/17 08:40:45;;;;;;;30.52;11.52;;;768.90;2406.40;;;;;;5047882;28;20110;-72
2021/09/17 08:43:11;;;;;;;28.63;13.48;;;793.70;2406.40;;;;;;5047557;28;20096;-73
2021/09/17 08:45:37;;;;;;;29.30;11.10;;;793.80;2355.20;;;;;;5045060;28;20502;-73
2021/09/17 08:48:03;;;;;;;32.10;13.57;;;794.20;2329.60;;;;;;5052370;28;20386;-73
2021/09/17 08:50:30;;;;;;;34.08;13.13;;;794.40;2304.00;;;;;;5039373;28;20116;-72
2021/09/17 08:52:56;;;;;;;31.00;15.30;;;794.00;2329.60;;;;;;5051438;28;20036;-72
2021/09/17 08:55:22;;;;;;;33.08;12.48;;;793.60;2329.60;;;;;;5045353;28;20049;-72
2021/09/17 08:57:48;;;;;;;29.50;12.40;;;793.60;2355.20;;;;;;5050570;28;20068;-73
2021/09/17 09:00:26;;;;;;;27.98;11.05;;;768.70;2329.60;;;;;;5061311;28;20167;-73
2021/09/17 09:02:57;;;;;;;31.88;14.52;;;768.70;2329.60;;;;;;5043796;28;20017;-73
2021/09/17 09:05:27;;;;;;;40.10;13.00;;;793.60;2355.20;;;;;;5050896;28;20158;-72
2021/09/17 09:07:53;;;;;;;33.45;13.48;;;793.80;2329.60;;;;;;5049514;28;20053;-73
2021/09/17 09:10:19;;;;;;;29.70;11.55;;;793.90;2278.40;;;;;;5041830;28;20033;-72
2021/09/17 09:12:48;;;;;;;29.23;12.35;;;794.00;2278.40;;;;;;5050274;28;20028;-72
2021/09/17 09:15:21;;;;;;;29.50;10.77;;;793.80;2329.60;;;;;;5052392;28;20021;-72
2021/09/17 09:17:48;;;;;;;24.50;11.82;;;793.70;2304.00;;;;;;5052195;28;20387;-72
2021/09/17 09:20:39;;;;;;;35.17;11.27;;;793.80;2278.40;;;;;;5042532;28;20036;-72
2021/09/17 09:23:20;;;;;;;30.83;11.98;;;793.80;2227.20;;;;;;5054817;28;20025;-72
2021/09/17 09:26:01;;;;;;;25.88;10.73;;;793.90;2227.20;;;;;;5027911;28;20037;-73
2021/09/17 09:28:43;;;;;;;22.20;8.85;;;819.30;2176.00;;;;;;5042901;28;20025;-73
2021/09/17 09:31:10;;;;;;;25.55;10.27;;;844.80;2099.20;;;;;;5050489;28;20048;-72
2021/09/17 09:33:44;;;;;;;22.45;9.55;;;845.50;2022.40;;;;;;5050449;28;20510;-73
2021/09/17 09:36:18;;;;;;;23.63;10.10;;;845.00;2048.00;;;;;;5046578;28;20057;-72
2021/09/17 09:38:47;;;;;;;23.57;8.83;;;845.50;1971.20;;;;;;5041118;28;20059;-72
2021/09/17 09:41:35;;;;;;;19.20;8.82;;;870.50;1945.60;;;;;;5057227;28;20024;-73
2021/09/17 09:44:14;;;;;;;22.83;7.78;;;870.90;1894.40;;;;;;5043148;28;20090;-73
2021/09/17 09:46:44;;;;;;;19.67;9.65;;;871.00;1843.20;;;;;;5016279;28;20395;-73
2021/09/17 09:49:29;;;;;;;18.55;7.40;;;871.10;1843.20;;;;;;5028096;28;20507;-73
2021/09/17 09:51:59;;;;;;;16.92;8.52;;;871.30;1792.00;;;;;;5047415;28;20013;-73
2021/09/17 09:54:28;;;;;;;22.92;9.68;;;896.30;1766.40;;;;;;5051200;28;20460;-73
2021/09/17 09:56:55;;;;;;;11.95;6.55;;;896.30;1740.80;;;;;;5032544;28;20787;-75
2021/09/17 09:59:27;;;;;;;16.52;8.23;;;921.70;1715.20;;;;;;5051820;28;20029;-74
2021/09/17 10:01:54;;;;;;;16.95;7.95;;;921.80;1689.60;;;;;;5030626;28;20017;-74
2021/09/17 10:04:23;;;;;;;19.73;7.72;;;922.20;1664.00;;;;;;5026199;28;20028;-74
2021/09/17 10:07:09;;;;;;;21.60;9.27;;;922.10;1664.00;;;;;;5041366;28;20704;-74
2021/09/17 10:09:36;;;;;;;;;;;922.10;1664.00;;;;;;5055394;28;20029;-74
2021/09/17 10:12:16;;;;;;;21.10;7.25;;;947.20;1638.40;;;;;;5029749;28;19931;-77
2021/09/17 10:14:45;;;;;;;18.42;8.23;;;947.20;1587.20;;;;;;5045598;28;20024;-74
2021/09/17 10:17:19;;;;;;;20.73;7.45;;;947.20;1587.20;;;;;;5031584;28;20033;-74
2021/09/17 10:19:46;;;;;;;17.85;7.38;;;947.50;1536.00;;;;;;5049174;28;20032;-74
2021/09/17 10:22:25;;;;;;;23.90;7.40;;;947.60;1536.00;;;;;;5031237;28;20037;-74
2021/09/17 10:25:23;;;;;;;14.50;6.30;;;947.80;1510.40;;;;;;5026758;28;20049;-74
2021/09/17 10:28:14;;;;;;;12.88;7.30;;;947.30;1536.00;;;;;;5030247;28;20024;-74
2021/09/17 10:30:41;;;;;;;18.15;7.32;;;948.10;1484.80;;;;;;5044012;28;20036;-74
2021/09/17 10:33:27;;;;;;;20.35;7.07;;;972.80;1484.80;;;;;;5032679;28;20021;-74
2021/09/17 10:35:53;;;;;;;17.25;7.72;;;973.20;1459.20;;;;;;5050173;28;20032;-74
2021/09/17 10:38:24;;;;;;;15.30;6.45;;;998.40;1433.60;;;;;;5056107;28;20025;-74
2021/09/17 10:40:59;;;;;;;16.67;8.75;;;973.40;1459.20;;;;;;5054510;28;20085;-74
2021/09/17 10:43:28;;;;;;;18.92;7.93;;;947.90;1433.60;;;;;;5054503;28;20391;-74
2021/09/17 10:45:58;;;;;;;18.45;6.75;;;947.20;1433.60;;;;;;5043735;28;20096;-74
2021/09/17 10:48:51;;;;;;;15.38;7.85;;;922.40;1459.20;;;;;;5018038;28;20380;-74
2021/09/17 10:51:31;;;;;;;21.90;7.88;;;947.70;1408.00;;;;;;4988051;28;20504;-74
2021/09/17 10:54:02;;;;;;;24.30;7.78;;;973.30;1408.00;;;;;;4990392;28;20541;-74
2021/09/17 10:56:48;;;;;;;17.70;8.13;;;973.30;1382.40;;;;;;4972344;28;20129;-75
2021/09/17 10:59:24;;;;;;;24.17;8.60;;;947.80;1382.40;;;;;;4992290;28;20042;-75
2021/09/17 11:02:01;;;;;;;15.93;7.57;;;922.10;1459.20;;;;;;4968236;28;20031;-74
2021/09/17 11:04:38;;;;;;;18.23;7.45;;;921.80;1459.20;;;;;;4993912;28;20559;-75
2021/09/17 11:07:21;;;;;;;17.52;7.43;;;947.20;1459.20;;;;;;4987750;28;20871;-75
2021/09/17 11:09:52;;;;;;;21.00;8.70;;;947.50;1433.60;;;;;;4992200;28;20117;-75
2021/09/17 11:12:29;;;;;;;13.90;6.32;;;947.30;1408.00;;;;;;4991283;28;20092;-74
2021/09/17 11:15:00;;;;;;;15.95;6.35;;;947.70;1408.00;;;;;;4988656;28;20034;-73
2021/09/17 11:17:39;;;;;;;16.33;8.32;;;947.90;1408.00;;;;;;4990879;28;20537;-73
2021/09/17 11:20:07;;;;;;;15.52;8.38;;;948.10;1382.40;;;;;;4990156;28;20045;-73
2021/09/17 11:22:50;;;;;;;16.77;5.93;;;972.80;1382.40;;;;;;4986307;28;20035;-74
2021/09/17 11:25:44;;;;;;;15.40;6.13;;;972.90;1408.00;;;;;;4973113;28;20042;-73
2021/09/17 11:28:28;;;;;;;17.35;6.78;;;998.40;1382.40;;;;;;4994292;28;20370;-73
2021/09/17 11:31:10;;;;;;;13.18;5.75;;;973.30;1382.40;;;;;;5008227;28;20018;-73
2021/09/17 11:33:36;;;;;;;18.15;6.45;;;973.70;1356.80;;;;;;5014611;28;20091;-73
2021/09/17 11:36:02;;;;;;;15.35;7.28;;;998.50;1356.80;;;;;;5010177;28;20030;-73
2021/09/17 11:38:28;;;;;;;15.20;6.97;;;998.90;1356.80;;;;;;5007465;28;20039;-74
2021/09/17 11:40:55;;;;;;;17.10;7.28;;;998.60;1356.80;;;;;;5014878;28;20042;-74
2021/09/17 11:43:22;;;;;;;16.60;7.18;;;998.90;1331.20;;;;;;5011070;28;20397;-74
2021/09/17 11:45:49;;;;;;;19.67;9.30;;;998.60;1356.80;;;;;;5013993;28;20029;-74
2021/09/17 11:48:24;;;;;;;15.20;7.90;;;998.90;1331.20;;;;;;5027223;28;20052;-74
2021/09/17 11:50:52;;;;;;;16.05;8.13;;;998.60;1331.20;;;;;;5010440;28;20032;-74
2021/09/17 11:53:17;;;;;;;19.40;6.85;;;999.00;1305.60;;;;;;5005534;28;20031;-74
2021/09/17 11:55:43;;;;;;;13.63;7.20;;;973.50;1305.60;;;;;;5012360;28;20053;-74
2021/09/17 11:58:09;;;;;;;14.82;7.25;;;948.00;1331.20;;;;;;5024929;28;20079;-73
2021/09/17 12:00:35;;;;;;;17.50;7.90;;;972.80;1356.80;;;;;;5012784;28;20438;-74
2021/09/17 12:03:06;;;;;;;10.55;6.82;;;947.30;1331.20;;;;;;5008874;28;20029;-74
2021/09/17 12:05:36;;;;;;;17.13;6.00;;;921.80;1408.00;;;;;;5026151;28;20389;-74